sensor_id;sensor_type;location;lat;lon;timestamp;P1;durP1;ratioP1;P2;durP2;ratioP2
26277;SDS011;14000;52.056;8.510;2023-08-06T00:00:03;17.77;;;9.93;;
26277;SDS011;14000;52.056;8.510;2023-08-06T00:02:30;19.80;;;11.23;;
26277;SDS011;14000;52.056;8.510;2023-08-06T00:04:55;15.30;;;9.17;;
26277;SDS011;14000;52.056;8.510;2023-08-06T00:07:21;16.97;;;10.30;;
26277;SDS011;14000;52.056;8.510;2023-08-06T00:09:46;19.73;;;10.73;;
26277;SDS011;14000;52.056;8.510;2023-08-06T00:12:12;17.00;;;9.13;;
26277;SDS011;14000;52.056;8.510;2023-08-06T00:14:38;19.17;;;11.07;;
26277;SDS011;14000;52.056;8.510;2023-08-06T00:17:03;18.00;;;10.63;;
26277;SDS011;14000;52.056;8.510;2023-08-06T00:19:29;18.83;;;11.23;;
26277;SDS011;14000;52.056;8.510;2023-08-06T00:21:56;17.57;;;10.53;;
26277;SDS011;14000;52.056;8.510;2023-08-06T00:24:21;17.67;;;9.27;;
26277;SDS011;14000;52.056;8.510;2023-08-06T00:26:47;20.33;;;12.03;;
26277;SDS011;14000;52.056;8.510;2023-08-06T00:29:12;16.00;;;9.67;;
26277;SDS011;14000;52.056;8.510;2023-08-06T00:31:38;17.90;;;10.53;;
26277;SDS011;14000;52.056;8.510;2023-08-06T00:34:03;17.10;;;9.67;;
26277;SDS011;14000;52.056;8.510;2023-08-06T00:36:29;14.97;;;9.53;;
26277;SDS011;14000;52.056;8.510;2023-08-06T00:38:55;18.23;;;10.93;;
26277;SDS011;14000;52.056;8.510;2023-08-06T00:41:20;21.30;;;11.83;;
26277;SDS011;14000;52.056;8.510;2023-08-06T00:43:46;22.33;;;12.50;;
26277;SDS011;14000;52.056;8.510;2023-08-06T00:46:12;19.60;;;11.73;;
26277;SDS011;14000;52.056;8.510;2023-08-06T00:48:38;22.13;;;12.07;;
26277;SDS011;14000;52.056;8.510;2023-08-06T00:51:04;17.17;;;10.93;;
26277;SDS011;14000;52.056;8.510;2023-08-06T00:53:30;17.83;;;11.77;;
26277;SDS011;14000;52.056;8.510;2023-08-06T00:55:56;20.63;;;12.17;;
26277;SDS011;14000;52.056;8.510;2023-08-06T00:58:22;21.33;;;10.90;;
26277;SDS011;14000;52.056;8.510;2023-08-06T01:00:47;17.27;;;10.20;;
26277;SDS011;14000;52.056;8.510;2023-08-06T01:03:13;19.40;;;11.57;;
26277;SDS011;14000;52.056;8.510;2023-08-06T01:05:39;17.90;;;10.70;;
26277;SDS011;14000;52.056;8.510;2023-08-06T01:13:45;17.30;;;10.57;;
26277;SDS011;14000;52.056;8.510;2023-08-06T01:16:18;17.97;;;11.03;;
26277;SDS011;14000;52.056;8.510;2023-08-06T01:18:46;19.37;;;10.93;;
26277;SDS011;14000;52.056;8.510;2023-08-06T01:21:14;22.73;;;12.43;;
26277;SDS011;14000;52.056;8.510;2023-08-06T01:23:44;18.33;;;11.33;;
26277;SDS011;14000;52.056;8.510;2023-08-06T01:29:01;18.97;;;11.37;;
26277;SDS011;14000;52.056;8.510;2023-08-06T01:31:37;20.60;;;12.40;;
26277;SDS011;14000;52.056;8.510;2023-08-06T01:34:05;20.73;;;12.67;;
26277;SDS011;14000;52.056;8.510;2023-08-06T01:36:36;20.00;;;11.20;;
26277;SDS011;14000;52.056;8.510;2023-08-06T01:39:01;17.10;;;10.40;;
26277;SDS011;14000;52.056;8.510;2023-08-06T01:41:28;16.73;;;10.03;;
26277;SDS011;14000;52.056;8.510;2023-08-06T01:43:54;18.57;;;10.43;;
26277;SDS011;14000;52.056;8.510;2023-08-06T01:46:19;19.53;;;10.00;;
26277;SDS011;14000;52.056;8.510;2023-08-06T01:48:45;21.27;;;12.63;;
26277;SDS011;14000;52.056;8.510;2023-08-06T01:51:10;24.97;;;14.80;;
26277;SDS011;14000;52.056;8.510;2023-08-06T01:53:36;24.57;;;13.47;;
26277;SDS011;14000;52.056;8.510;2023-08-06T01:56:01;20.13;;;12.40;;
26277;SDS011;14000;52.056;8.510;2023-08-06T01:58:27;21.00;;;13.07;;
26277;SDS011;14000;52.056;8.510;2023-08-06T02:00:53;20.70;;;12.97;;
26277;SDS011;14000;52.056;8.510;2023-08-06T02:03:18;20.97;;;11.57;;
26277;SDS011;14000;52.056;8.510;2023-08-06T02:05:44;18.13;;;11.47;;
26277;SDS011;14000;52.056;8.510;2023-08-06T02:08:10;19.60;;;12.03;;
26277;SDS011;14000;52.056;8.510;2023-08-06T02:10:36;25.60;;;14.43;;
26277;SDS011;14000;52.056;8.510;2023-08-06T02:13:02;22.07;;;12.70;;
26277;SDS011;14000;52.056;8.510;2023-08-06T02:15:27;18.13;;;10.97;;
26277;SDS011;14000;52.056;8.510;2023-08-06T02:17:53;20.73;;;11.93;;
26277;SDS011;14000;52.056;8.510;2023-08-06T02:20:18;20.70;;;13.27;;
26277;SDS011;14000;52.056;8.510;2023-08-06T02:22:44;21.47;;;11.87;;
26277;SDS011;14000;52.056;8.510;2023-08-06T02:25:09;19.97;;;11.90;;
26277;SDS011;14000;52.056;8.510;2023-08-06T02:27:35;22.57;;;13.20;;
26277;SDS011;14000;52.056;8.510;2023-08-06T02:30:02;20.73;;;12.10;;
26277;SDS011;14000;52.056;8.510;2023-08-06T02:32:29;16.53;;;10.50;;
26277;SDS011;14000;52.056;8.510;2023-08-06T02:34:56;20.07;;;12.90;;
26277;SDS011;14000;52.056;8.510;2023-08-06T02:37:22;16.43;;;10.20;;
26277;SDS011;14000;52.056;8.510;2023-08-06T02:39:47;18.97;;;11.60;;
26277;SDS011;14000;52.056;8.510;2023-08-06T02:42:13;19.83;;;12.10;;
26277;SDS011;14000;52.056;8.510;2023-08-06T02:44:39;21.77;;;13.00;;
26277;SDS011;14000;52.056;8.510;2023-08-06T02:47:04;21.83;;;13.77;;
26277;SDS011;14000;52.056;8.510;2023-08-06T02:49:30;21.77;;;11.87;;
26277;SDS011;14000;52.056;8.510;2023-08-06T02:51:56;27.03;;;16.53;;
26277;SDS011;14000;52.056;8.510;2023-08-06T02:54:21;23.90;;;14.33;;
26277;SDS011;14000;52.056;8.510;2023-08-06T02:56:47;29.07;;;16.90;;
26277;SDS011;14000;52.056;8.510;2023-08-06T02:59:12;23.00;;;13.80;;
26277;SDS011;14000;52.056;8.510;2023-08-06T03:01:38;20.13;;;12.40;;
26277;SDS011;14000;52.056;8.510;2023-08-06T03:04:04;23.20;;;13.93;;
26277;SDS011;14000;52.056;8.510;2023-08-06T03:06:30;23.87;;;13.50;;
26277;SDS011;14000;52.056;8.510;2023-08-06T03:08:56;17.70;;;11.43;;
26277;SDS011;14000;52.056;8.510;2023-08-06T03:11:21;22.03;;;13.00;;
26277;SDS011;14000;52.056;8.510;2023-08-06T03:13:47;21.00;;;12.03;;
26277;SDS011;14000;52.056;8.510;2023-08-06T03:16:13;19.07;;;12.03;;
26277;SDS011;14000;52.056;8.510;2023-08-06T03:18:39;23.23;;;13.40;;
26277;SDS011;14000;52.056;8.510;2023-08-06T03:21:05;21.03;;;11.80;;
26277;SDS011;14000;52.056;8.510;2023-08-06T03:23:30;19.77;;;12.50;;
26277;SDS011;14000;52.056;8.510;2023-08-06T03:25:56;18.13;;;10.67;;
26277;SDS011;14000;52.056;8.510;2023-08-06T03:28:26;18.03;;;11.27;;
26277;SDS011;14000;52.056;8.510;2023-08-06T03:31:01;18.30;;;10.77;;
26277;SDS011;14000;52.056;8.510;2023-08-06T03:33:28;24.23;;;14.20;;
26277;SDS011;14000;52.056;8.510;2023-08-06T03:35:53;17.63;;;11.57;;
26277;SDS011;14000;52.056;8.510;2023-08-06T03:38:19;21.50;;;13.07;;
26277;SDS011;14000;52.056;8.510;2023-08-06T03:40:45;17.43;;;11.13;;
26277;SDS011;14000;52.056;8.510;2023-08-06T03:43:11;19.47;;;12.60;;
26277;SDS011;14000;52.056;8.510;2023-08-06T03:45:37;22.43;;;13.07;;
26277;SDS011;14000;52.056;8.510;2023-08-06T03:48:02;31.00;;;17.43;;
26277;SDS011;14000;52.056;8.510;2023-08-06T03:50:28;34.67;;;19.13;;
26277;SDS011;14000;52.056;8.510;2023-08-06T03:52:54;17.80;;;11.90;;
26277;SDS011;14000;52.056;8.510;2023-08-06T03:55:19;19.03;;;11.40;;
26277;SDS011;14000;52.056;8.510;2023-08-06T03:57:45;17.73;;;11.00;;
26277;SDS011;14000;52.056;8.510;2023-08-06T04:00:11;21.10;;;12.87;;
26277;SDS011;14000;52.056;8.510;2023-08-06T04:02:37;22.63;;;13.87;;
26277;SDS011;14000;52.056;8.510;2023-08-06T04:05:03;17.17;;;10.87;;
26277;SDS011;14000;52.056;8.510;2023-08-06T04:07:29;21.87;;;13.47;;
26277;SDS011;14000;52.056;8.510;2023-08-06T04:09:58;19.43;;;12.23;;
26277;SDS011;14000;52.056;8.510;2023-08-06T04:12:25;24.13;;;14.40;;
26277;SDS011;14000;52.056;8.510;2023-08-06T04:14:51;21.27;;;12.07;;
26277;SDS011;14000;52.056;8.510;2023-08-06T04:17:18;23.33;;;15.13;;
26277;SDS011;14000;52.056;8.510;2023-08-06T04:19:45;19.97;;;12.90;;
26277;SDS011;14000;52.056;8.510;2023-08-06T04:22:18;20.07;;;12.93;;
26277;SDS011;14000;52.056;8.510;2023-08-06T04:24:44;28.40;;;16.13;;
26277;SDS011;14000;52.056;8.510;2023-08-06T04:27:10;28.27;;;16.93;;
26277;SDS011;14000;52.056;8.510;2023-08-06T04:29:37;19.33;;;12.27;;
26277;SDS011;14000;52.056;8.510;2023-08-06T04:32:06;26.70;;;16.30;;
26277;SDS011;14000;52.056;8.510;2023-08-06T04:34:33;31.73;;;19.33;;
26277;SDS011;14000;52.056;8.510;2023-08-06T04:37:00;28.47;;;18.20;;
26277;SDS011;14000;52.056;8.510;2023-08-06T04:39:26;35.47;;;21.27;;
26277;SDS011;14000;52.056;8.510;2023-08-06T04:41:52;40.13;;;23.13;;
26277;SDS011;14000;52.056;8.510;2023-08-06T04:44:17;29.70;;;19.03;;
26277;SDS011;14000;52.056;8.510;2023-08-06T04:46:43;37.40;;;21.37;;
26277;SDS011;14000;52.056;8.510;2023-08-06T04:49:09;33.50;;;21.47;;
26277;SDS011;14000;52.056;8.510;2023-08-06T04:51:34;34.33;;;22.43;;
26277;SDS011;14000;52.056;8.510;2023-08-06T04:54:00;29.67;;;19.60;;
26277;SDS011;14000;52.056;8.510;2023-08-06T04:56:25;33.67;;;20.93;;
26277;SDS011;14000;52.056;8.510;2023-08-06T04:58:52;31.43;;;18.63;;
26277;SDS011;14000;52.056;8.510;2023-08-06T05:01:17;32.47;;;19.13;;
26277;SDS011;14000;52.056;8.510;2023-08-06T05:03:43;26.43;;;16.87;;
26277;SDS011;14000;52.056;8.510;2023-08-06T05:06:09;32.03;;;18.57;;
26277;SDS011;14000;52.056;8.510;2023-08-06T05:08:35;29.40;;;17.17;;
26277;SDS011;14000;52.056;8.510;2023-08-06T05:11:01;24.20;;;16.27;;
26277;SDS011;14000;52.056;8.510;2023-08-06T05:13:26;28.17;;;17.70;;
26277;SDS011;14000;52.056;8.510;2023-08-06T05:15:55;20.90;;;13.77;;
26277;SDS011;14000;52.056;8.510;2023-08-06T05:18:21;29.90;;;17.17;;
26277;SDS011;14000;52.056;8.510;2023-08-06T05:20:47;26.63;;;15.03;;
26277;SDS011;14000;52.056;8.510;2023-08-06T05:23:13;19.40;;;12.90;;
26277;SDS011;14000;52.056;8.510;2023-08-06T05:25:38;27.00;;;17.03;;
26277;SDS011;14000;52.056;8.510;2023-08-06T05:28:04;24.13;;;15.97;;
26277;SDS011;14000;52.056;8.510;2023-08-06T05:30:30;24.87;;;15.57;;
26277;SDS011;14000;52.056;8.510;2023-08-06T05:32:56;16.70;;;10.40;;
26277;SDS011;14000;52.056;8.510;2023-08-06T05:35:22;17.27;;;12.00;;
26277;SDS011;14000;52.056;8.510;2023-08-06T05:37:48;20.30;;;13.77;;
26277;SDS011;14000;52.056;8.510;2023-08-06T05:40:14;24.50;;;14.17;;
26277;SDS011;14000;52.056;8.510;2023-08-06T05:42:40;19.50;;;13.13;;
26277;SDS011;14000;52.056;8.510;2023-08-06T05:45:06;25.33;;;13.80;;
26277;SDS011;14000;52.056;8.510;2023-08-06T05:47:32;24.57;;;15.47;;
26277;SDS011;14000;52.056;8.510;2023-08-06T05:49:58;25.33;;;14.97;;
26277;SDS011;14000;52.056;8.510;2023-08-06T05:52:23;15.57;;;10.73;;
26277;SDS011;14000;52.056;8.510;2023-08-06T05:54:49;17.00;;;11.83;;
26277;SDS011;14000;52.056;8.510;2023-08-06T05:57:15;18.97;;;11.27;;
26277;SDS011;14000;52.056;8.510;2023-08-06T05:59:41;21.53;;;13.87;;
26277;SDS011;14000;52.056;8.510;2023-08-06T06:02:06;20.33;;;11.07;;
26277;SDS011;14000;52.056;8.510;2023-08-06T06:04:32;17.97;;;12.37;;
26277;SDS011;14000;52.056;8.510;2023-08-06T06:06:58;18.27;;;11.73;;
26277;SDS011;14000;52.056;8.510;2023-08-06T06:09:23;15.80;;;10.07;;
26277;SDS011;14000;52.056;8.510;2023-08-06T06:11:49;16.20;;;10.30;;
26277;SDS011;14000;52.056;8.510;2023-08-06T06:14:15;15.60;;;9.77;;
26277;SDS011;14000;52.056;8.510;2023-08-06T06:16:44;14.17;;;9.27;;
26277;SDS011;14000;52.056;8.510;2023-08-06T06:19:10;16.83;;;9.67;;
26277;SDS011;14000;52.056;8.510;2023-08-06T06:21:36;15.73;;;9.93;;
26277;SDS011;14000;52.056;8.510;2023-08-06T06:24:03;15.43;;;10.17;;
26277;SDS011;14000;52.056;8.510;2023-08-06T06:26:30;19.23;;;9.80;;
26277;SDS011;14000;52.056;8.510;2023-08-06T06:28:56;19.33;;;9.33;;
26277;SDS011;14000;52.056;8.510;2023-08-06T06:31:21;14.80;;;9.63;;
26277;SDS011;14000;52.056;8.510;2023-08-06T06:33:47;21.43;;;11.53;;
26277;SDS011;14000;52.056;8.510;2023-08-06T06:36:12;22.03;;;12.50;;
26277;SDS011;14000;52.056;8.510;2023-08-06T06:38:38;21.67;;;14.00;;
26277;SDS011;14000;52.056;8.510;2023-08-06T06:41:04;17.97;;;11.53;;
26277;SDS011;14000;52.056;8.510;2023-08-06T06:43:29;19.43;;;12.70;;
26277;SDS011;14000;52.056;8.510;2023-08-06T06:45:56;18.00;;;11.77;;
26277;SDS011;14000;52.056;8.510;2023-08-06T06:48:23;18.57;;;12.13;;
26277;SDS011;14000;52.056;8.510;2023-08-06T06:50:48;20.67;;;12.47;;
26277;SDS011;14000;52.056;8.510;2023-08-06T06:53:14;18.63;;;12.43;;
26277;SDS011;14000;52.056;8.510;2023-08-06T06:55:40;20.43;;;12.87;;
26277;SDS011;14000;52.056;8.510;2023-08-06T06:58:05;21.23;;;13.37;;
26277;SDS011;14000;52.056;8.510;2023-08-06T07:00:31;16.20;;;11.27;;
26277;SDS011;14000;52.056;8.510;2023-08-06T07:02:56;14.20;;;9.20;;
26277;SDS011;14000;52.056;8.510;2023-08-06T07:05:22;17.67;;;11.23;;
26277;SDS011;14000;52.056;8.510;2023-08-06T07:07:47;14.90;;;8.20;;
26277;SDS011;14000;52.056;8.510;2023-08-06T07:10:13;16.67;;;9.73;;
26277;SDS011;14000;52.056;8.510;2023-08-06T07:12:39;15.73;;;10.10;;
26277;SDS011;14000;52.056;8.510;2023-08-06T07:15:05;14.03;;;8.23;;
26277;SDS011;14000;52.056;8.510;2023-08-06T07:17:32;15.97;;;9.63;;
26277;SDS011;14000;52.056;8.510;2023-08-06T07:19:57;18.03;;;9.83;;
26277;SDS011;14000;52.056;8.510;2023-08-06T07:22:23;11.53;;;7.53;;
26277;SDS011;14000;52.056;8.510;2023-08-06T07:24:48;18.73;;;9.63;;
26277;SDS011;14000;52.056;8.510;2023-08-06T07:27:14;15.60;;;9.13;;
26277;SDS011;14000;52.056;8.510;2023-08-06T07:29:39;11.80;;;7.30;;
26277;SDS011;14000;52.056;8.510;2023-08-06T07:32:06;14.23;;;8.47;;
26277;SDS011;14000;52.056;8.510;2023-08-06T07:34:32;14.17;;;7.87;;
26277;SDS011;14000;52.056;8.510;2023-08-06T07:36:58;15.80;;;8.03;;
26277;SDS011;14000;52.056;8.510;2023-08-06T07:39:23;13.17;;;7.57;;
26277;SDS011;14000;52.056;8.510;2023-08-06T07:41:49;17.83;;;8.20;;
26277;SDS011;14000;52.056;8.510;2023-08-06T07:44:15;13.57;;;7.53;;
26277;SDS011;14000;52.056;8.510;2023-08-06T07:46:41;14.47;;;7.40;;
26277;SDS011;14000;52.056;8.510;2023-08-06T07:49:07;14.30;;;6.87;;
26277;SDS011;14000;52.056;8.510;2023-08-06T07:51:33;10.50;;;6.43;;
26277;SDS011;14000;52.056;8.510;2023-08-06T07:53:59;11.10;;;6.97;;
26277;SDS011;14000;52.056;8.510;2023-08-06T07:56:24;11.10;;;6.40;;
26277;SDS011;14000;52.056;8.510;2023-08-06T07:58:50;11.73;;;7.40;;
26277;SDS011;14000;52.056;8.510;2023-08-06T08:01:15;10.90;;;6.30;;
26277;SDS011;14000;52.056;8.510;2023-08-06T08:03:41;10.10;;;6.23;;
26277;SDS011;14000;52.056;8.510;2023-08-06T08:06:06;12.00;;;6.07;;
26277;SDS011;14000;52.056;8.510;2023-08-06T08:08:32;9.77;;;5.33;;
26277;SDS011;14000;52.056;8.510;2023-08-06T08:10:58;10.50;;;5.53;;
26277;SDS011;14000;52.056;8.510;2023-08-06T08:13:25;12.37;;;5.50;;
26277;SDS011;14000;52.056;8.510;2023-08-06T08:15:55;30.20;;;17.80;;
26277;SDS011;14000;52.056;8.510;2023-08-06T08:18:22;13.20;;;6.23;;
26277;SDS011;14000;52.056;8.510;2023-08-06T08:20:48;9.90;;;4.83;;
26277;SDS011;14000;52.056;8.510;2023-08-06T08:23:13;9.67;;;4.80;;
26277;SDS011;14000;52.056;8.510;2023-08-06T08:25:39;8.87;;;4.70;;
26277;SDS011;14000;52.056;8.510;2023-08-06T08:28:04;8.80;;;4.30;;
26277;SDS011;14000;52.056;8.510;2023-08-06T08:30:30;9.97;;;4.83;;
26277;SDS011;14000;52.056;8.510;2023-08-06T08:32:55;11.37;;;4.67;;
26277;SDS011;14000;52.056;8.510;2023-08-06T08:35:21;9.60;;;4.60;;
26277;SDS011;14000;52.056;8.510;2023-08-06T08:37:47;10.10;;;3.90;;
26277;SDS011;14000;52.056;8.510;2023-08-06T08:40:13;7.87;;;3.60;;
26277;SDS011;14000;52.056;8.510;2023-08-06T08:42:39;8.40;;;4.10;;
26277;SDS011;14000;52.056;8.510;2023-08-06T08:45:06;8.60;;;3.50;;
26277;SDS011;14000;52.056;8.510;2023-08-06T08:47:37;7.93;;;3.00;;
26277;SDS011;14000;52.056;8.510;2023-08-06T08:50:03;8.20;;;3.47;;
26277;SDS011;14000;52.056;8.510;2023-08-06T08:52:31;8.73;;;3.20;;
26277;SDS011;14000;52.056;8.510;2023-08-06T08:54:59;8.60;;;3.20;;
26277;SDS011;14000;52.056;8.510;2023-08-06T08:57:26;8.47;;;3.20;;
26277;SDS011;14000;52.056;8.510;2023-08-06T08:59:52;6.80;;;2.70;;
26277;SDS011;14000;52.056;8.510;2023-08-06T09:02:18;9.23;;;3.00;;
26277;SDS011;14000;52.056;8.510;2023-08-06T09:04:45;9.80;;;3.13;;
26277;SDS011;14000;52.056;8.510;2023-08-06T09:07:13;8.20;;;3.00;;
26277;SDS011;14000;52.056;8.510;2023-08-06T09:09:43;8.27;;;3.20;;
26277;SDS011;14000;52.056;8.510;2023-08-06T09:12:12;9.53;;;3.10;;
26277;SDS011;14000;52.056;8.510;2023-08-06T09:14:40;7.53;;;3.03;;
26277;SDS011;14000;52.056;8.510;2023-08-06T09:17:05;7.93;;;3.13;;
26277;SDS011;14000;52.056;8.510;2023-08-06T09:19:31;9.83;;;2.73;;
26277;SDS011;14000;52.056;8.510;2023-08-06T09:21:58;8.63;;;2.70;;
26277;SDS011;14000;52.056;8.510;2023-08-06T09:24:24;7.87;;;3.30;;
26277;SDS011;14000;52.056;8.510;2023-08-06T09:26:51;9.77;;;3.10;;
26277;SDS011;14000;52.056;8.510;2023-08-06T09:29:16;7.40;;;2.93;;
26277;SDS011;14000;52.056;8.510;2023-08-06T09:31:43;7.90;;;2.83;;
26277;SDS011;14000;52.056;8.510;2023-08-06T09:34:15;9.43;;;3.10;;
26277;SDS011;14000;52.056;8.510;2023-08-06T09:36:42;7.30;;;2.80;;
26277;SDS011;14000;52.056;8.510;2023-08-06T09:39:17;10.07;;;3.13;;
26277;SDS011;14000;52.056;8.510;2023-08-06T09:41:44;7.60;;;2.90;;
26277;SDS011;14000;52.056;8.510;2023-08-06T09:44:22;8.83;;;3.30;;
26277;SDS011;14000;52.056;8.510;2023-08-06T09:49:20;8.20;;;3.00;;
26277;SDS011;14000;52.056;8.510;2023-08-06T09:51:53;7.73;;;2.70;;
26277;SDS011;14000;52.056;8.510;2023-08-06T09:54:24;8.50;;;3.00;;
26277;SDS011;14000;52.056;8.510;2023-08-06T09:56:52;9.37;;;3.00;;
26277;SDS011;14000;52.056;8.510;2023-08-06T09:59:19;9.43;;;3.00;;
26277;SDS011;14000;52.056;8.510;2023-08-06T10:01:45;7.47;;;2.73;;
26277;SDS011;14000;52.056;8.510;2023-08-06T10:04:11;7.13;;;2.77;;
26277;SDS011;14000;52.056;8.510;2023-08-06T10:06:41;7.87;;;2.67;;
26277;SDS011;14000;52.056;8.510;2023-08-06T10:09:07;7.00;;;2.60;;
26277;SDS011;14000;52.056;8.510;2023-08-06T10:11:34;8.83;;;2.63;;
26277;SDS011;14000;52.056;8.510;2023-08-06T10:14:08;8.20;;;2.70;;
26277;SDS011;14000;52.056;8.510;2023-08-06T10:16:40;7.40;;;2.67;;
26277;SDS011;14000;52.056;8.510;2023-08-06T10:19:07;7.93;;;2.27;;
26277;SDS011;14000;52.056;8.510;2023-08-06T10:21:35;8.00;;;2.60;;
26277;SDS011;14000;52.056;8.510;2023-08-06T10:24:00;7.17;;;2.30;;
26277;SDS011;14000;52.056;8.510;2023-08-06T10:26:29;6.60;;;2.40;;
26277;SDS011;14000;52.056;8.510;2023-08-06T10:28:55;7.97;;;2.10;;
26277;SDS011;14000;52.056;8.510;2023-08-06T10:34:20;7.13;;;2.60;;
26277;SDS011;14000;52.056;8.510;2023-08-06T10:36:45;7.83;;;2.80;;
26277;SDS011;14000;52.056;8.510;2023-08-06T10:39:14;7.93;;;2.40;;
26277;SDS011;14000;52.056;8.510;2023-08-06T10:41:41;7.40;;;2.40;;
26277;SDS011;14000;52.056;8.510;2023-08-06T10:44:09;9.97;;;3.47;;
26277;SDS011;14000;52.056;8.510;2023-08-06T10:46:36;6.90;;;2.43;;
26277;SDS011;14000;52.056;8.510;2023-08-06T10:49:02;10.23;;;2.60;;
26277;SDS011;14000;52.056;8.510;2023-08-06T10:51:28;9.67;;;2.90;;
26277;SDS011;14000;52.056;8.510;2023-08-06T10:53:54;7.77;;;2.50;;
26277;SDS011;14000;52.056;8.510;2023-08-06T10:56:21;8.20;;;2.67;;
26277;SDS011;14000;52.056;8.510;2023-08-06T10:58:48;7.87;;;2.60;;
26277;SDS011;14000;52.056;8.510;2023-08-06T11:01:15;9.20;;;2.43;;
26277;SDS011;14000;52.056;8.510;2023-08-06T11:03:41;7.63;;;2.60;;
26277;SDS011;14000;52.056;8.510;2023-08-06T11:06:08;8.47;;;2.90;;
26277;SDS011;14000;52.056;8.510;2023-08-06T11:08:36;8.70;;;2.73;;
26277;SDS011;14000;52.056;8.510;2023-08-06T11:11:09;9.10;;;2.37;;
26277;SDS011;14000;52.056;8.510;2023-08-06T11:13:36;6.97;;;2.63;;
26277;SDS011;14000;52.056;8.510;2023-08-06T11:16:03;7.77;;;2.53;;
26277;SDS011;14000;52.056;8.510;2023-08-06T11:18:30;7.53;;;2.77;;
26277;SDS011;14000;52.056;8.510;2023-08-06T11:21:00;7.10;;;2.53;;
26277;SDS011;14000;52.056;8.510;2023-08-06T11:23:27;7.90;;;2.50;;
26277;SDS011;14000;52.056;8.510;2023-08-06T11:25:54;6.07;;;2.03;;
26277;SDS011;14000;52.056;8.510;2023-08-06T11:28:20;6.47;;;1.80;;
26277;SDS011;14000;52.056;8.510;2023-08-06T11:30:51;7.17;;;1.93;;
26277;SDS011;14000;52.056;8.510;2023-08-06T11:33:21;9.90;;;2.80;;
26277;SDS011;14000;52.056;8.510;2023-08-06T11:35:50;7.10;;;2.10;;
26277;SDS011;14000;52.056;8.510;2023-08-06T11:38:17;6.30;;;1.97;;
26277;SDS011;14000;52.056;8.510;2023-08-06T11:40:50;6.50;;;2.10;;
26277;SDS011;14000;52.056;8.510;2023-08-06T11:43:17;7.00;;;2.23;;
26277;SDS011;14000;52.056;8.510;2023-08-06T11:45:44;7.70;;;1.90;;
26277;SDS011;14000;52.056;8.510;2023-08-06T11:48:10;6.77;;;1.80;;
26277;SDS011;14000;52.056;8.510;2023-08-06T11:50:36;6.30;;;1.97;;
26277;SDS011;14000;52.056;8.510;2023-08-06T11:53:03;7.07;;;1.97;;
26277;SDS011;14000;52.056;8.510;2023-08-06T11:55:30;8.27;;;1.83;;
26277;SDS011;14000;52.056;8.510;2023-08-06T11:57:56;6.63;;;1.90;;
26277;SDS011;14000;52.056;8.510;2023-08-06T12:00:25;6.10;;;2.00;;
26277;SDS011;14000;52.056;8.510;2023-08-06T12:02:51;7.90;;;1.87;;
26277;SDS011;14000;52.056;8.510;2023-08-06T12:05:19;6.53;;;2.00;;
26277;SDS011;14000;52.056;8.510;2023-08-06T12:07:52;7.77;;;2.20;;
26277;SDS011;14000;52.056;8.510;2023-08-06T12:10:20;8.87;;;2.27;;
26277;SDS011;14000;52.056;8.510;2023-08-06T12:12:47;6.60;;;1.77;;
26277;SDS011;14000;52.056;8.510;2023-08-06T12:15:13;6.43;;;1.90;;
26277;SDS011;14000;52.056;8.510;2023-08-06T12:17:39;7.40;;;2.03;;
26277;SDS011;14000;52.056;8.510;2023-08-06T12:20:05;8.47;;;2.40;;
26277;SDS011;14000;52.056;8.510;2023-08-06T12:22:32;7.07;;;2.03;;
26277;SDS011;14000;52.056;8.510;2023-08-06T12:25:03;7.10;;;2.40;;
26277;SDS011;14000;52.056;8.510;2023-08-06T12:27:33;7.60;;;2.40;;
26277;SDS011;14000;52.056;8.510;2023-08-06T12:29:59;6.83;;;2.30;;
26277;SDS011;14000;52.056;8.510;2023-08-06T12:32:25;7.47;;;2.17;;
26277;SDS011;14000;52.056;8.510;2023-08-06T12:34:51;6.63;;;2.07;;
26277;SDS011;14000;52.056;8.510;2023-08-06T12:37:16;7.43;;;2.20;;
26277;SDS011;14000;52.056;8.510;2023-08-06T12:39:42;6.70;;;2.30;;
26277;SDS011;14000;52.056;8.510;2023-08-06T12:42:07;10.80;;;2.70;;
26277;SDS011;14000;52.056;8.510;2023-08-06T12:44:33;7.23;;;2.20;;
26277;SDS011;14000;52.056;8.510;2023-08-06T12:46:59;9.10;;;2.30;;
26277;SDS011;14000;52.056;8.510;2023-08-06T12:49:25;7.83;;;2.30;;
26277;SDS011;14000;52.056;8.510;2023-08-06T12:51:51;7.70;;;2.30;;
26277;SDS011;14000;52.056;8.510;2023-08-06T12:54:18;6.17;;;2.10;;
26277;SDS011;14000;52.056;8.510;2023-08-06T12:56:47;6.03;;;1.93;;
26277;SDS011;14000;52.056;8.510;2023-08-06T12:59:14;7.40;;;2.20;;
26277;SDS011;14000;52.056;8.510;2023-08-06T13:01:40;6.90;;;2.33;;
26277;SDS011;14000;52.056;8.510;2023-08-06T13:04:06;6.60;;;2.00;;
26277;SDS011;14000;52.056;8.510;2023-08-06T13:06:32;6.13;;;2.27;;
26277;SDS011;14000;52.056;8.510;2023-08-06T13:09:05;8.43;;;2.13;;
26277;SDS011;14000;52.056;8.510;2023-08-06T13:11:32;5.93;;;1.83;;
26277;SDS011;14000;52.056;8.510;2023-08-06T13:14:05;7.57;;;1.90;;
26277;SDS011;14000;52.056;8.510;2023-08-06T13:16:32;6.53;;;1.93;;
26277;SDS011;14000;52.056;8.510;2023-08-06T13:18:58;6.37;;;2.00;;
26277;SDS011;14000;52.056;8.510;2023-08-06T13:21:24;6.33;;;1.93;;
26277;SDS011;14000;52.056;8.510;2023-08-06T13:23:49;5.90;;;1.77;;
26277;SDS011;14000;52.056;8.510;2023-08-06T13:26:15;6.00;;;1.80;;
26277;SDS011;14000;52.056;8.510;2023-08-06T13:28:41;7.00;;;1.93;;
26277;SDS011;14000;52.056;8.510;2023-08-06T13:31:07;6.40;;;1.93;;
26277;SDS011;14000;52.056;8.510;2023-08-06T13:33:32;8.67;;;2.10;;
26277;SDS011;14000;52.056;8.510;2023-08-06T13:35:58;6.53;;;1.80;;
26277;SDS011;14000;52.056;8.510;2023-08-06T13:38:24;6.83;;;2.00;;
26277;SDS011;14000;52.056;8.510;2023-08-06T13:40:49;7.33;;;2.13;;
26277;SDS011;14000;52.056;8.510;2023-08-06T13:43:15;8.63;;;2.43;;
26277;SDS011;14000;52.056;8.510;2023-08-06T13:45:43;10.23;;;3.03;;
26277;SDS011;14000;52.056;8.510;2023-08-06T13:48:09;10.47;;;2.83;;
26277;SDS011;14000;52.056;8.510;2023-08-06T13:50:35;7.30;;;2.20;;
26277;SDS011;14000;52.056;8.510;2023-08-06T13:53:02;7.90;;;2.70;;
26277;SDS011;14000;52.056;8.510;2023-08-06T13:55:28;8.00;;;2.77;;
26277;SDS011;14000;52.056;8.510;2023-08-06T13:57:53;7.97;;;3.10;;
26277;SDS011;14000;52.056;8.510;2023-08-06T14:00:19;9.60;;;3.13;;
26277;SDS011;14000;52.056;8.510;2023-08-06T14:02:44;8.43;;;3.27;;
26277;SDS011;14000;52.056;8.510;2023-08-06T14:05:10;11.27;;;3.87;;
26277;SDS011;14000;52.056;8.510;2023-08-06T14:07:36;8.70;;;3.53;;
26277;SDS011;14000;52.056;8.510;2023-08-06T14:10:01;11.53;;;4.10;;
26277;SDS011;14000;52.056;8.510;2023-08-06T14:12:27;9.17;;;3.83;;
26277;SDS011;14000;52.056;8.510;2023-08-06T14:14:52;9.93;;;4.30;;
26277;SDS011;14000;52.056;8.510;2023-08-06T14:17:18;9.27;;;4.30;;
26277;SDS011;14000;52.056;8.510;2023-08-06T14:19:44;10.63;;;4.70;;
26277;SDS011;14000;52.056;8.510;2023-08-06T14:22:10;10.50;;;5.27;;
26277;SDS011;14000;52.056;8.510;2023-08-06T14:24:35;9.17;;;4.23;;
26277;SDS011;14000;52.056;8.510;2023-08-06T14:27:01;11.23;;;5.17;;
26277;SDS011;14000;52.056;8.510;2023-08-06T14:29:29;12.23;;;5.07;;
26277;SDS011;14000;52.056;8.510;2023-08-06T14:31:54;9.13;;;4.03;;
26277;SDS011;14000;52.056;8.510;2023-08-06T14:34:20;8.50;;;3.67;;
26277;SDS011;14000;52.056;8.510;2023-08-06T14:36:46;9.63;;;3.77;;
26277;SDS011;14000;52.056;8.510;2023-08-06T14:39:11;9.63;;;4.50;;
26277;SDS011;14000;52.056;8.510;2023-08-06T14:41:37;11.57;;;5.27;;